Terminal Aerodrome Forecast
Issued by NWS Omaha/Valley, NE

Home | Current Version | Previous Version | Text Only | Print | Product List | Glossary On
Versions: 1 2 3 4 5 6 7 8 9 10 11 12 13 14 15 16 17 18 19 20 21 22 23 24 25 26 27 28 29 30
000
FTUS43 KOAX 301345 AAA
TAFOFK
TAF AMD
KOFK 301345Z 3014/0112 14012KT P6SM SCT030 OVC060
      TEMPO 3014/3015 2SM SHRA OVC030
     FM301500 16014G21KT P6SM SCT015 BKN050
     FM301900 19013G22KT P6SM SCT030 BKN250
     FM302300 18011KT P6SM BKN050 PROB30 0100/0104 3SM TSRA
      OVC025CB=

USA.gov is the U.S. government's official web portal to all federal, state and local government web resources and services.